Time;durP1;ratioP1;P1;durP2;ratioP2;P2;SDS_P1;SDS_P2;PMS_P1;PMS_P2;Temp;Humidity;BMP_temperature;BMP_pressure;BME280_temperature;BME280_humidity;BME280_pressure;Samples;Min_cycle;Max_cycle;Signal;HPM_P1;HPM_P2
2023/04/05 00:00:43;;;;;;;1.52;0.80;;;;;;;20.00;34.97;102661.09;5066496;28;20242;-67
2023/04/05 00:03:09;;;;;;;1.92;1.38;;;;;;;19.98;35.02;102655.13;5072765;28;20059;-67
2023/04/05 00:05:35;;;;;;;2.05;1.27;;;;;;;19.91;35.03;102649.53;5069249;28;20427;-67
2023/04/05 00:08:02;;;;;;;2.03;1.42;;;;;;;19.83;35.10;102642.28;5069259;28;20037;-67
2023/04/05 00:10:29;;;;;;;2.08;1.40;;;;;;;19.85;35.18;102634.22;5070177;28;20409;-67
2023/04/05 00:12:54;;;;;;;1.67;1.40;;;;;;;19.92;34.99;102641.44;5069184;28;21757;-67
2023/04/05 00:15:20;;;;;;;1.40;1.20;;;;;;;19.82;35.18;102629.22;5076452;28;20054;-67
2023/04/05 00:17:46;;;;;;;2.50;1.60;;;;;;;19.85;35.09;102634.22;5072680;28;20137;-68
2023/04/05 00:20:12;;;;;;;1.48;1.20;;;;;;;19.77;35.22;102634.91;5066056;28;20480;-68
2023/04/05 00:22:37;;;;;;;2.22;1.48;;;;;;;19.82;35.10;102630.03;5070634;28;20047;-67
2023/04/05 00:25:04;;;;;;;2.08;1.23;;;;;;;19.79;35.27;102632.13;5072276;28;20383;-67
2023/04/05 00:27:29;;;;;;;2.03;1.15;;;;;;;19.79;35.01;102629.47;5062779;28;20052;-67
2023/04/05 00:29:55;;;;;;;1.77;1.20;;;;;;;19.80;34.98;102626.69;5051404;28;20039;-67
2023/04/05 00:32:21;;;;;;;1.10;1.00;;;;;;;19.79;34.94;102622.38;5074499;28;21975;-67
2023/04/05 00:34:46;;;;;;;1.58;1.10;;;;;;;19.67;35.24;102631.38;5064664;28;20093;-67
2023/04/05 00:37:12;;;;;;;2.28;1.45;;;;;;;19.70;35.15;102627.63;5072143;28;20035;-67
2023/04/05 00:39:40;;;;;;;1.33;0.90;;;;;;;19.69;35.18;102623.31;5070808;28;20028;-67
2023/04/05 00:42:07;;;;;;;3.00;1.70;;;;;;;19.58;35.29;102611.06;5073228;28;20074;-67
2023/04/05 00:44:34;;;;;;;1.83;1.13;;;;;;;19.62;35.07;102620.41;5071737;28;20438;-67
2023/04/05 00:47:04;;;;;;;1.77;1.40;;;;;;;19.63;35.26;102615.94;5067674;28;20090;-67
2023/04/05 00:49:31;;;;;;;2.10;1.40;;;;;;;19.60;35.36;102617.88;5072581;28;20382;-67
2023/04/05 00:51:58;;;;;;;1.30;1.20;;;;;;;19.64;35.10;102618.44;5067806;28;20421;-67
2023/04/05 00:54:28;;;;;;;1.00;0.95;;;;;;;19.58;35.21;102625.13;5069217;28;20402;-67
2023/04/05 00:56:58;;;;;;;1.30;1.20;;;;;;;19.58;35.24;102617.19;5068282;28;20062;-67
2023/04/05 00:59:30;;;;;;;1.92;1.33;;;;;;;19.49;35.22;102615.31;5066404;28;20496;-67
2023/04/05 01:02:12;;;;;;;2.03;1.52;;;;;;;19.55;35.23;102613.97;5070842;28;20048;-67
2023/04/05 01:04:45;;;;;;;1.92;1.23;;;;;;;19.50;35.25;102601.13;5070211;28;20508;-67
2023/04/05 01:07:22;;;;;;;1.20;1.10;;;;;;;19.52;35.11;102601.00;5062629;28;20055;-67
2023/04/05 01:09:57;;;;;;;1.88;1.42;;;;;;;19.49;35.18;102602.09;5070332;28;20109;-68
2023/04/05 01:12:27;;;;;;;1.40;1.27;;;;;;;19.48;35.15;102596.94;5069031;28;20040;-68
2023/04/05 01:14:54;;;;;;;1.83;1.42;;;;;;;19.52;35.22;102593.91;5069010;28;20052;-68
2023/04/05 01:17:22;;;;;;;1.35;1.23;;;;;;;19.48;35.20;102597.78;5072517;28;20074;-67
2023/04/05 01:19:58;;;;;;;1.33;1.23;;;;;;;19.40;35.16;102602.91;5074460;28;20032;-67
2023/04/05 01:22:42;;;;;;;1.30;1.20;;;;;;;19.43;35.21;102591.25;5069378;28;20043;-69
2023/04/05 01:25:18;;;;;;;2.10;1.48;;;;;;;19.46;35.15;102593.63;5070888;28;20081;-67
2023/04/05 01:28:02;;;;;;;1.75;1.23;;;;;;;19.46;35.13;102585.69;5068026;28;20045;-67
2023/04/05 01:30:33;;;;;;;2.50;1.60;;;;;;;19.33;35.35;102581.47;5076119;28;20062;-67
2023/04/05 01:33:28;;;;;;;2.00;1.65;;;;;;;19.43;35.09;102581.50;5067918;28;20047;-68
2023/04/05 01:36:10;;;;;;;2.42;1.60;;;;;;;19.32;35.30;102579.78;5040086;28;20504;-67
2023/04/05 01:38:38;;;;;;;3.08;1.50;;;;;;;19.39;35.18;102572.19;5067539;28;20039;-67
2023/04/05 01:41:04;;;;;;;2.55;1.50;;;;;;;19.36;35.13;102571.59;5080466;28;20024;-67
2023/04/05 01:43:29;;;;;;;3.55;1.80;;;;;;;19.24;35.17;102560.31;5067801;28;20152;-67
2023/04/05 01:45:55;;;;;;;2.72;1.60;;;;;;;19.31;35.18;102577.28;5068295;28;20040;-67
2023/04/05 01:48:20;;;;;;;2.63;1.60;;;;;;;19.30;35.13;102565.06;5077207;28;20040;-67
2023/04/05 01:50:46;;;;;;;2.85;2.00;;;;;;;19.26;35.36;102574.22;5071334;28;20089;-67
2023/04/05 01:53:11;;;;;;;3.40;2.15;;;;;;;19.26;35.20;102576.88;5076452;28;20101;-67
2023/04/05 01:55:37;;;;;;;2.38;1.67;;;;;;;19.27;35.20;102566.16;5084287;28;20039;-67
2023/04/05 01:58:03;;;;;;;2.45;1.67;;;;;;;19.25;35.37;102562.81;5070970;28;20402;-67
2023/04/05 02:00:28;;;;;;;2.35;1.80;;;;;;;19.25;35.23;102562.00;5068926;28;20032;-67
2023/04/05 02:02:54;;;;;;;2.47;1.90;;;;;;;19.24;35.30;102565.59;5076614;28;20143;-67
2023/04/05 02:05:19;;;;;;;2.60;1.95;;;;;;;19.23;35.24;102559.47;5065891;28;20040;-67
2023/04/05 02:07:45;;;;;;;2.33;1.60;;;;;;;19.17;35.37;102572.38;5073048;28;20036;-67
2023/04/05 02:10:10;;;;;;;3.38;1.95;;;;;;;19.13;35.48;102565.69;5075759;28;20044;-67
2023/04/05 02:12:37;;;;;;;2.65;1.92;;;;;;;19.19;35.33;102565.97;5072004;28;20031;-68
2023/04/05 02:15:05;;;;;;;1.98;1.40;;;;;;;19.18;35.26;102569.59;5076989;28;20181;-68
2023/04/05 02:17:38;;;;;;;2.20;1.70;;;;;;;19.14;35.16;102567.34;5070985;28;20037;-67
2023/04/05 02:20:09;;;;;;;3.85;2.35;;;;;;;19.17;35.20;102562.63;5073265;28;20127;-67
2023/04/05 02:22:35;;;;;;;2.42;1.70;;;;;;;19.15;35.17;102563.75;5072921;28;20032;-67
2023/04/05 02:25:02;;;;;;;2.63;1.70;;;;;;;19.11;35.33;102557.06;5075222;28;20601;-67
2023/04/05 02:27:29;;;;;;;2.83;2.00;;;;;;;19.14;35.11;102562.91;5071597;28;20036;-67
2023/04/05 02:29:56;;;;;;;2.63;1.70;;;;;;;19.12;35.26;102558.72;5071040;28;20044;-67
2023/04/05 02:32:22;;;;;;;2.45;1.80;;;;;;;19.12;35.23;102561.38;5098356;27;20056;-67
2023/04/05 02:34:47;;;;;;;2.10;1.70;;;;;;;19.09;35.32;102561.66;5071948;28;20124;-67
2023/04/05 02:37:13;;;;;;;2.97;1.88;;;;;;;19.09;35.16;102556.38;5071586;28;20044;-67
2023/04/05 02:39:38;;;;;;;2.70;1.90;;;;;;;19.02;35.37;102559.50;5071979;28;20121;-68
2023/04/05 02:42:04;;;;;;;2.30;1.70;;;;;;;18.98;35.37;102555.47;5071619;28;20048;-68
2023/04/05 02:44:30;;;;;;;2.53;1.85;;;;;;;19.01;35.34;102564.94;5076054;28;20087;-67
2023/04/05 02:46:55;;;;;;;2.72;1.90;;;;;;;19.05;35.21;102554.97;5070834;28;21138;-69
2023/04/05 02:49:27;;;;;;;1.58;1.45;;;;;;;19.06;35.18;102554.84;5067253;28;20031;-67
2023/04/05 02:51:55;;;;;;;2.00;1.80;;;;;;;19.02;35.38;102553.41;5069513;28;20101;-67
2023/04/05 02:54:21;;;;;;;1.95;1.75;;;;;;;19.10;35.15;102550.94;5071710;28;20401;-67
2023/04/05 02:56:48;;;;;;;2.85;2.08;;;;;;;19.21;34.97;102542.06;5077632;28;20044;-67
2023/04/05 02:59:16;;;;;;;1.58;1.25;;;;;;;19.25;34.87;102535.56;5072094;28;20048;-67
2023/04/05 03:01:43;;;;;;;2.38;1.80;;;;;;;19.21;35.02;102544.72;5072835;28;20044;-67
2023/04/05 03:04:16;;;;;;;3.28;1.90;;;;;;;19.16;35.00;102545.13;5069384;28;20070;-67
2023/04/05 03:06:45;;;;;;;2.22;1.70;;;;;;;19.24;34.91;102545.31;5087681;27;20045;-67
2023/04/05 03:09:11;;;;;;;2.10;1.80;;;;;;;19.35;34.68;102538.22;5075200;28;20024;-67
2023/04/05 03:11:37;;;;;;;2.53;1.80;;;;;;;19.17;35.08;102541.50;5072424;28;20029;-67
2023/04/05 03:14:03;;;;;;;2.13;1.73;;;;;;;19.18;35.08;102542.34;5072776;28;20137;-67
2023/04/05 03:16:42;;;;;;;2.88;1.77;;;;;;;19.17;35.12;102538.03;5072827;28;20042;-67
2023/04/05 03:19:21;;;;;;;2.83;1.50;;;;;;;19.12;35.21;102540.25;5066286;28;20028;-68
2023/04/05 03:21:50;;;;;;;2.03;1.75;;;;;;;19.19;34.97;102542.22;5062001;28;20047;-67
2023/04/05 03:24:27;;;;;;;2.80;2.00;;;;;;;19.24;34.79;102540.03;5067121;28;20040;-67
2023/04/05 03:26:58;;;;;;;2.22;1.60;;;;;;;19.20;35.06;102543.03;5067806;28;20036;-67
2023/04/05 03:29:24;;;;;;;1.85;1.45;;;;;;;19.18;35.11;102540.53;5069352;28;20059;-67
2023/04/05 03:31:51;;;;;;;1.77;1.58;;;;;;;19.16;35.14;102539.00;5072308;28;20059;-68
2023/04/05 03:34:21;;;;;;;1.85;1.55;;;;;;;19.14;34.94;102533.03;5075595;28;21638;-67
2023/04/05 03:36:48;;;;;;;2.20;1.65;;;;;;;19.15;35.12;102534.69;5069453;28;20032;-68
2023/04/05 03:39:29;;;;;;;2.53;1.80;;;;;;;19.17;35.00;102527.47;5072557;28;20120;-67
2023/04/05 03:41:55;;;;;;;2.38;1.70;;;;;;;19.14;35.08;102530.38;5071512;28;20036;-67
2023/04/05 03:44:21;;;;;;;1.90;1.73;;;;;;;19.10;35.03;102535.09;5067295;28;20113;-67
2023/04/05 03:46:46;;;;;;;1.42;1.30;;;;;;;19.07;35.22;102526.63;5072163;28;20045;-69
2023/04/05 03:49:14;;;;;;;2.70;1.60;;;;;;;18.96;35.30;102522.25;5073626;28;20040;-67
2023/04/05 03:51:40;;;;;;;1.92;1.45;;;;;;;19.06;35.12;102528.44;5071369;28;20078;-68
2023/04/05 03:54:06;;;;;;;1.70;1.58;;;;;;;19.10;35.10;102527.19;5071938;28;20528;-67
2023/04/05 03:56:33;;;;;;;2.08;1.88;;;;;;;19.06;35.03;102525.78;5071855;28;20044;-68
2023/04/05 03:59:08;;;;;;;1.92;1.55;;;;;;;18.97;35.34;102521.28;5070871;28;20050;-67
2023/04/05 04:01:35;;;;;;;2.83;1.75;;;;;;;18.95;35.30;102518.78;5070757;28;20059;-67
2023/04/05 04:04:03;;;;;;;1.83;1.50;;;;;;;19.09;35.10;102516.75;5072826;28;20756;-68
2023/04/05 04:06:29;;;;;;;2.80;1.80;;;;;;;18.91;35.41;102512.09;5069516;28;20036;-67
2023/04/05 04:08:56;;;;;;;1.80;1.55;;;;;;;19.00;35.14;102513.09;5069742;28;20632;-67
2023/04/05 04:11:21;;;;;;;2.35;1.73;;;;;;;18.99;35.14;102506.97;5063888;28;20069;-67
2023/04/05 04:13:47;;;;;;;1.88;1.50;;;;;;;19.79;33.67;102500.78;5070472;28;20048;-68
2023/04/05 04:16:21;;;;;;;2.08;1.67;;;;;;;20.36;32.70;102506.16;5071663;28;20063;-67
2023/04/05 04:19:12;;;;;;;1.70;1.60;;;;;;;20.43;32.63;102496.69;5093651;27;21082;-68
2023/04/05 04:21:58;;;;;;;2.13;1.60;;;;;;;20.42;32.43;102495.84;5069512;28;20061;-67
2023/04/05 04:24:53;;;;;;;2.50;1.70;;;;;;;20.33;32.62;102499.34;5058957;28;20103;-67
2023/04/05 04:27:40;;;;;;;3.00;1.83;;;;;;;20.22;32.80;102492.38;5067184;28;20524;-67
2023/04/05 04:30:26;;;;;;;2.92;1.70;;;;;;;20.10;33.12;102500.59;5069356;28;20382;-67
2023/04/05 04:33:07;;;;;;;1.30;1.20;;;;;;;19.86;33.57;102493.97;5063068;28;20486;-67
2023/04/05 04:35:53;;;;;;;1.50;1.40;;;;;;;19.78;33.70;102498.28;5096550;27;20054;-67
2023/04/05 04:38:41;;;;;;;1.92;1.45;;;;;;;19.64;33.88;102496.03;5067697;28;20083;-68
2023/04/05 04:41:11;;;;;;;2.28;1.60;;;;;;;19.51;34.11;102497.09;5067424;28;20966;-67
2023/04/05 04:43:42;;;;;;;1.40;1.30;;;;;;;19.34;34.40;102492.50;5064713;28;20049;-67
2023/04/05 04:46:13;;;;;;;2.42;1.85;;;;;;;19.27;34.47;102502.78;5061695;28;20079;-67
2023/04/05 04:49:17;;;;;;;2.00;1.50;;;;;;;19.21;34.73;102500.69;5060167;28;20040;-67
2023/04/05 04:51:47;;;;;;;2.00;1.55;;;;;;;19.24;34.60;102496.94;5069272;28;20031;-68
2023/04/05 04:54:12;;;;;;;1.83;1.60;;;;;;;19.14;34.85;102496.91;5068117;28;20052;-67
2023/04/05 04:56:40;;;;;;;1.73;1.50;;;;;;;19.14;34.83;102499.53;5065532;28;20042;-67
2023/04/05 04:59:05;;;;;;;2.38;1.42;;;;;;;19.06;34.49;102499.38;5071629;28;20036;-67
2023/04/05 05:01:32;;;;;;;1.55;1.45;;;;;;;19.08;34.76;102497.44;5066760;28;20063;-67
2023/04/05 05:03:59;;;;;;;2.03;1.83;;;;;;;19.06;34.89;102496.75;5064894;28;20047;-67
2023/04/05 05:06:28;;;;;;;2.38;1.58;;;;;;;18.94;35.13;102498.63;5071557;28;20036;-67
2023/04/05 05:08:55;;;;;;;2.17;1.65;;;;;;;18.93;35.12;102502.25;5070423;28;20055;-67
2023/04/05 05:11:20;;;;;;;1.92;1.55;;;;;;;19.03;34.76;102497.03;5060575;28;20872;-67
2023/04/05 05:13:46;;;;;;;2.33;1.65;;;;;;;18.96;35.08;102498.50;5065687;28;20067;-67
2023/04/05 05:16:20;;;;;;;2.72;1.60;;;;;;;18.99;35.00;102496.44;5068302;28;20847;-68
2023/04/05 05:18:47;;;;;;;1.55;1.40;;;;;;;19.00;34.88;102499.91;5076501;28;20082;-67
2023/04/05 05:21:12;;;;;;;2.00;1.50;;;;;;;19.06;34.75;102501.19;5067539;28;20048;-67
2023/04/05 05:23:38;;;;;;;1.95;1.65;;;;;;;19.00;34.60;102499.91;5070286;28;20044;-67
2023/04/05 05:26:04;;;;;;;2.10;1.42;;;;;;;18.90;35.03;102488.50;5068830;28;20063;-67
2023/04/05 05:28:29;;;;;;;1.30;1.20;;;;;;;18.89;34.92;102492.94;5069614;28;20081;-67
2023/04/05 05:30:55;;;;;;;1.83;1.70;;;;;;;18.86;35.12;102493.19;5070604;28;20090;-67
2023/04/05 05:33:20;;;;;;;2.00;1.70;;;;;;;18.83;35.07;102496.09;5073834;28;20117;-67
2023/04/05 05:35:50;;;;;;;3.05;1.75;;;;;;;18.90;35.02;102502.53;5072366;28;20513;-67
2023/04/05 05:38:16;;;;;;;1.90;1.43;;;;;;;18.88;34.98;102496.53;5074825;28;20039;-67
2023/04/05 05:40:42;;;;;;;2.45;1.70;;;;;;;18.77;35.03;102507.19;5070249;28;20938;-67
2023/04/05 05:43:09;;;;;;;3.35;1.58;;;;;;;18.81;35.10;102500.66;5067732;28;20048;-67
2023/04/05 05:45:35;;;;;;;2.28;1.70;;;;;;;18.81;35.03;102505.09;5070123;28;20056;-67
2023/04/05 05:48:00;;;;;;;1.98;1.48;;;;;;;18.74;35.08;102501.34;5076448;28;20048;-68
2023/04/05 05:50:26;;;;;;;2.80;1.88;;;;;;;18.74;35.13;102506.63;5067509;28;20040;-68
2023/04/05 05:52:52;;;;;;;2.17;1.80;;;;;;;18.71;35.14;102505.06;5067360;28;20073;-68
2023/04/05 05:55:17;;;;;;;2.13;1.92;;;;;;;18.75;35.09;102498.56;5078519;28;20105;-67
2023/04/05 05:57:44;;;;;;;2.78;1.60;;;;;;;18.78;35.05;102506.22;5072305;28;20117;-67
2023/04/05 06:00:10;;;;;;;1.58;1.48;;;;;;;18.71;35.30;102502.44;5072808;28;20047;-67
2023/04/05 06:02:40;;;;;;;;;;;;;;;18.75;35.12;102503.84;5071732;28;20106;-67
2023/04/05 06:05:05;;;;;;;3.60;1.50;;;;;;;18.74;35.08;102499.53;5070464;28;19991;-67
2023/04/05 06:07:34;;;;;;;1.65;1.52;;;;;;;18.83;34.79;102487.31;5073274;28;20529;-67
2023/04/05 06:10:00;;;;;;;2.42;1.83;;;;;;;19.73;33.37;102496.03;5070219;28;20966;-68
2023/04/05 06:12:26;;;;;;;1.55;1.45;;;;;;;20.16;32.53;102500.91;5100081;27;20035;-69
2023/04/05 06:14:51;;;;;;;2.15;1.88;;;;;;;20.25;32.41;102496.56;5069969;28;20097;-68
2023/04/05 06:17:17;;;;;;;2.15;1.77;;;;;;;20.40;32.18;102495.13;5071177;28;20044;-67
2023/04/05 06:19:42;;;;;;;1.90;1.70;;;;;;;20.54;31.88;102493.03;5070689;28;20632;-67
2023/04/05 06:22:08;;;;;;;1.88;1.63;;;;;;;20.74;31.90;102497.28;5066060;28;20118;-67
2023/04/05 06:24:33;;;;;;;2.03;1.60;;;;;;;20.85;31.53;102502.41;5068158;28;20048;-67
2023/04/05 06:27:00;;;;;;;1.83;1.40;;;;;;;20.88;31.55;102496.81;5067879;28;20102;-68
2023/04/05 06:29:25;;;;;;;1.85;1.40;;;;;;;21.02;31.44;102493.69;5070022;28;20036;-68
2023/04/05 06:31:51;;;;;;;2.88;2.00;;;;;;;20.98;31.18;102491.47;5075512;28;20028;-70
2023/04/05 06:34:17;;;;;;;3.83;1.95;;;;;;;21.05;31.57;102493.38;5072674;28;20115;-69
2023/04/05 06:36:42;;;;;;;3.17;1.88;;;;;;;21.02;31.59;102492.84;5077783;28;20055;-70
2023/04/05 06:39:08;;;;;;;3.67;2.00;;;;;;;21.03;31.65;102498.00;5073273;28;20040;-69
2023/04/05 06:41:34;;;;;;;2.05;1.60;;;;;;;20.98;31.79;102502.06;5072219;28;20044;-69
2023/04/05 06:43:59;;;;;;;3.58;2.20;;;;;;;20.93;32.07;102499.84;5071562;28;20046;-69
2023/04/05 06:46:25;;;;;;;4.25;1.80;;;;;;;21.07;31.78;102495.88;5073330;28;20043;-69
2023/04/05 06:48:51;;;;;;;4.13;1.60;;;;;;;21.05;31.93;102492.56;5082005;28;20040;-69
2023/04/05 06:51:18;;;;;;;4.15;1.70;;;;;;;21.15;31.80;102495.97;5076529;28;20044;-69
2023/04/05 06:53:43;;;;;;;3.17;1.90;;;;;;;21.27;31.41;102494.00;5070587;28;20081;-69
2023/04/05 06:56:09;;;;;;;3.50;2.35;;;;;;;21.42;31.32;102495.97;5073983;28;21869;-68
2023/04/05 06:58:35;;;;;;;5.40;1.50;;;;;;;21.62;30.96;102494.03;5074800;28;20126;-68
2023/04/05 07:01:01;;;;;;;2.92;1.75;;;;;;;22.08;30.51;102501.88;5074320;28;20425;-70
2023/04/05 07:03:27;;;;;;;2.50;1.40;;;;;;;22.30;30.52;102507.53;5068648;28;20132;-70
2023/04/05 07:05:55;;;;;;;5.95;1.70;;;;;;;22.13;30.37;102502.28;5077094;28;20891;-70
2023/04/05 07:08:22;;;;;;;5.47;1.95;;;;;;;22.14;30.63;102499.47;5079969;28;20096;-69
2023/04/05 07:10:48;;;;;;;4.07;1.92;;;;;;;22.08;30.79;102507.19;5071347;28;20511;-69
2023/04/05 07:13:14;;;;;;;4.30;1.80;;;;;;;22.01;31.08;102504.28;5073838;28;20118;-69
2023/04/05 07:15:40;;;;;;;4.78;2.35;;;;;;;22.11;30.82;102506.91;5073303;28;20059;-71
2023/04/05 07:18:05;;;;;;;2.40;2.00;;;;;;;22.10;31.00;102513.19;5067910;28;20048;-70
2023/04/05 07:20:31;;;;;;;4.18;1.52;;;;;;;22.03;31.29;102504.97;5076746;28;20059;-70
2023/04/05 07:22:57;;;;;;;3.70;2.10;;;;;;;21.95;31.32;102508.41;5071676;28;20103;-70
2023/04/05 07:25:23;;;;;;;3.20;2.40;;;;;;;21.94;30.95;102508.56;5075262;28;20763;-69
2023/04/05 07:27:49;;;;;;;3.30;1.65;;;;;;;21.91;31.46;102507.06;5076960;28;20044;-70
2023/04/05 07:30:14;;;;;;;2.92;1.88;;;;;;;21.89;31.14;102505.50;5073529;28;20822;-70
2023/04/05 07:32:40;;;;;;;2.10;1.60;;;;;;;21.83;31.44;102506.13;5072633;28;20091;-69
2023/04/05 07:35:06;;;;;;;3.45;1.83;;;;;;;21.75;31.39;102506.06;5072457;28;20670;-70
2023/04/05 07:37:31;;;;;;;2.78;1.67;;;;;;;21.75;31.70;102504.25;5075715;28;20032;-69
2023/04/05 07:39:57;;;;;;;2.95;1.80;;;;;;;21.73;31.49;102510.69;5073620;28;20040;-70
2023/04/05 07:42:23;;;;;;;2.47;1.67;;;;;;;21.70;31.66;102501.22;5071722;28;20081;-70
2023/04/05 07:44:48;;;;;;;2.70;1.50;;;;;;;21.66;31.71;102507.81;5069654;28;20043;-71
2023/04/05 07:47:14;;;;;;;2.78;1.90;;;;;;;21.61;31.78;102497.66;5070546;28;20044;-70
2023/04/05 07:49:39;;;;;;;1.75;1.42;;;;;;;21.49;32.12;102493.56;5071428;28;20040;-72
2023/04/05 07:52:05;;;;;;;4.40;1.60;;;;;;;21.39;32.10;102493.63;5070577;28;20069;-69
2023/04/05 07:54:32;;;;;;;2.40;1.65;;;;;;;21.40;32.08;102495.31;5070224;28;20043;-70
2023/04/05 07:56:58;;;;;;;1.67;1.58;;;;;;;21.27;32.40;102491.34;5072198;28;20055;-70
2023/04/05 07:59:24;;;;;;;4.00;1.90;;;;;;;21.21;32.45;102499.88;5073138;28;20032;-70
2023/04/05 08:01:49;;;;;;;2.25;1.60;;;;;;;21.17;32.45;102494.00;5070707;28;20046;-70
2023/04/05 08:04:15;;;;;;;4.05;1.42;;;;;;;20.98;33.15;102488.81;5072334;28;20220;-69
2023/04/05 08:06:40;;;;;;;1.67;1.50;;;;;;;20.97;32.85;102493.28;5073026;28;20487;-69
2023/04/05 08:09:07;;;;;;;4.40;1.88;;;;;;;20.95;33.12;102499.69;5073088;28;20048;-69
2023/04/05 08:11:34;;;;;;;2.03;1.40;;;;;;;20.92;33.04;102497.34;5069710;28;20035;-67
2023/04/05 08:13:59;;;;;;;4.25;2.25;;;;;;;20.80;33.26;102497.53;5072104;28;20032;-72
2023/04/05 08:16:25;;;;;;;1.52;1.42;;;;;;;20.81;33.53;102488.59;5075806;28;20043;-72
2023/04/05 08:18:50;;;;;;;2.05;1.40;;;;;;;20.77;33.46;102495.19;5081545;28;20047;-70
2023/04/05 08:21:16;;;;;;;2.83;1.90;;;;;;;20.73;33.43;102493.81;5076499;28;20086;-70
2023/04/05 08:23:41;;;;;;;2.47;1.60;;;;;;;20.65;33.72;102491.06;5069006;28;20539;-69
2023/04/05 08:26:07;;;;;;;1.70;1.60;;;;;;;20.58;33.75;102489.97;5072497;28;20044;-69
2023/04/05 08:28:35;;;;;;;2.75;1.58;;;;;;;20.58;33.75;102478.53;5069880;28;20043;-69
2023/04/05 08:31:01;;;;;;;1.60;1.50;;;;;;;20.53;33.83;102486.91;5067922;28;20378;-70
2023/04/05 08:33:29;;;;;;;2.42;1.60;;;;;;;20.49;33.88;102491.69;5077487;28;20034;-70
2023/04/05 08:35:56;;;;;;;1.50;1.30;;;;;;;20.52;33.85;102486.09;5074568;28;20050;-70
2023/04/05 08:38:22;;;;;;;2.63;1.48;;;;;;;20.54;33.77;102491.22;5075657;28;20028;-70
2023/04/05 08:40:48;;;;;;;4.32;1.60;;;;;;;20.47;33.87;102479.56;5071934;28;20631;-70
2023/04/05 08:43:39;;;;;;;1.75;1.65;;;;;;;20.44;33.94;102475.38;5079839;28;20036;-71
2023/04/05 08:46:08;;;;;;;1.70;1.48;;;;;;;20.47;33.95;102475.09;5069416;28;20040;-69
2023/04/05 08:48:37;;;;;;;1.48;1.38;;;;;;;20.47;33.95;102482.22;5071213;28;20063;-71
2023/04/05 08:51:03;;;;;;;1.80;1.45;;;;;;;20.40;34.22;102479.25;5072690;28;20488;-71
2023/04/05 08:53:29;;;;;;;1.70;1.60;;;;;;;20.39;34.11;102477.59;5073295;28;20046;-70
2023/04/05 08:55:55;;;;;;;5.00;1.88;;;;;;;20.87;33.27;102476.63;5020144;28;20118;-67
2023/04/05 08:58:22;;;;;;;2.95;1.60;;;;;;;21.27;32.46;102472.78;5067682;28;20055;-68
2023/04/05 09:00:50;;;;;;;2.80;2.10;;;;;;;21.42;32.42;102474.78;5066697;28;20402;-65
2023/04/05 09:03:20;;;;;;;3.83;1.92;;;;;;;21.48;32.42;102475.16;5068119;28;20177;-70
2023/04/05 09:05:50;;;;;;;6.17;2.50;;;;;;;21.31;31.71;102476.81;5064282;28;20032;-66
2023/04/05 09:08:16;;;;;;;3.58;2.25;;;;;;;21.58;31.94;102478.56;5068057;28;20040;-70
2023/04/05 09:10:42;;;;;;;3.08;2.03;;;;;;;21.70;31.70;102480.00;5063763;28;20049;-69
2023/04/05 09:13:08;;;;;;;2.80;1.90;;;;;;;21.81;31.49;102477.13;5012600;28;20033;-69
2023/04/05 09:15:37;;;;;;;3.83;2.20;;;;;;;21.88;31.61;102472.84;5070118;28;20138;-70
2023/04/05 09:18:03;;;;;;;4.03;2.00;;;;;;;21.89;31.53;102469.22;5029355;28;20040;-65
2023/04/05 09:20:29;;;;;;;5.45;2.70;;;;;;;21.64;30.61;102472.66;5065735;28;21004;-73
2023/04/05 09:22:55;;;;;;;5.75;2.30;;;;;;;21.61;31.68;102471.16;5048712;28;20051;-76
2023/04/05 09:25:30;;;;;;;5.68;2.17;;;;;;;21.63;31.54;102469.19;5055862;28;20040;-77
2023/04/05 09:27:56;;;;;;;5.28;2.13;;;;;;;21.66;31.78;102460.09;5040556;28;20039;-76
2023/04/05 09:30:22;;;;;;;2.67;1.95;;;;;;;21.64;31.50;102460.22;5045206;28;20604;-76
2023/04/05 09:32:54;;;;;;;3.88;1.90;;;;;;;21.73;31.64;102461.16;5065546;28;20063;-69
2023/04/05 09:35:24;;;;;;;3.15;1.83;;;;;;;21.89;31.54;102460.44;5029787;28;20047;-69
2023/04/05 09:37:54;;;;;;;3.83;1.90;;;;;;;21.95;31.28;102459.84;5073645;28;20032;-69
2023/04/05 09:40:22;;;;;;;4.18;2.10;;;;;;;21.98;31.44;102462.16;5046901;28;20516;-66
2023/04/05 09:42:48;;;;;;;3.30;1.88;;;;;;;22.02;31.45;102461.69;5070501;28;20032;-67
2023/04/05 09:45:15;;;;;;;3.70;1.80;;;;;;;22.01;31.40;102453.91;5029753;28;20063;-66
2023/04/05 09:47:58;;;;;;;3.25;1.75;;;;;;;22.10;31.70;102462.78;5068887;28;20055;-66
2023/04/05 09:50:24;;;;;;;3.15;1.90;;;;;;;22.10;31.59;102454.84;5067534;28;20044;-69
2023/04/05 09:53:05;;;;;;;4.55;1.92;;;;;;;22.11;31.81;102456.50;5031565;28;20039;-65
2023/04/05 09:55:32;;;;;;;2.83;1.48;;;;;;;22.14;31.66;102454.34;5075997;28;20070;-70
2023/04/05 09:57:57;;;;;;;4.65;2.10;;;;;;;22.18;31.38;102454.88;5037864;28;20426;-71
2023/04/05 10:00:23;;;;;;;4.97;1.95;;;;;;;22.19;31.56;102451.22;5082526;28;20057;-66
2023/04/05 10:02:55;;;;;;;4.15;2.53;;;;;;;22.22;31.45;102449.09;5019499;28;20052;-67
2023/04/05 10:05:26;;;;;;;3.38;1.85;;;;;;;22.22;31.67;102454.41;5069271;28;20119;-68
2023/04/05 10:07:54;;;;;;;5.15;2.03;;;;;;;22.19;31.69;102445.94;5053232;28;20041;-70
2023/04/05 10:10:21;;;;;;;3.67;1.90;;;;;;;22.14;31.54;102437.59;5052410;28;20051;-74
2023/04/05 10:12:49;;;;;;;4.10;1.90;;;;;;;22.19;31.43;102446.75;5060191;28;20587;-68
2023/04/05 10:15:15;;;;;;;3.25;1.75;;;;;;;22.18;31.42;102446.91;5042498;28;20094;-73
2023/04/05 10:18:14;;;;;;;6.82;2.08;;;;;;;22.24;31.42;102446.28;5076295;28;20056;-66
2023/04/05 10:20:44;;;;;;;3.20;1.90;;;;;;;22.18;31.41;102436.31;5059327;28;20047;-63
2023/04/05 10:23:16;;;;;;;6.35;2.10;;;;;;;22.30;31.27;102443.84;5069437;28;20044;-65
2023/04/05 10:25:51;;;;;;;3.80;1.75;;;;;;;22.31;31.63;102440.22;5032090;28;20028;-69
2023/04/05 10:28:31;;;;;;;2.80;1.70;;;;;;;22.35;31.58;102434.56;5072502;28;20101;-66
2023/04/05 10:31:09;;;;;;;2.60;1.75;;;;;;;22.35;31.47;102431.94;5025999;28;20035;-68
2023/04/05 10:33:40;;;;;;;4.15;1.70;;;;;;;22.25;31.74;102434.69;5072364;28;20051;-67
2023/04/05 10:36:38;;;;;;;2.55;1.55;;;;;;;22.13;32.02;102438.59;5046771;28;20039;-67
2023/04/05 10:39:16;;;;;;;3.97;2.13;;;;;;;22.05;32.21;102430.56;5076808;28;20113;-67
2023/04/05 10:41:47;;;;;;;2.95;1.95;;;;;;;22.01;31.92;102424.72;5036972;28;20105;-68
2023/04/05 10:44:14;;;;;;;4.50;1.92;;;;;;;21.99;32.28;102424.03;5078844;28;20060;-68
2023/04/05 10:46:40;;;;;;;2.35;1.80;;;;;;;21.94;32.12;102418.38;5036027;28;20064;-68
2023/04/05 10:49:14;;;;;;;2.50;1.45;;;;;;;21.91;32.33;102426.66;5077137;28;20040;-68
2023/04/05 10:51:42;;;;;;;2.90;1.63;;;;;;;21.91;32.17;102426.66;5035613;28;20857;-67
2023/04/05 10:54:09;;;;;;;3.42;1.63;;;;;;;21.88;32.42;102424.28;5063893;28;20051;-68
2023/04/05 10:56:37;;;;;;;2.75;1.75;;;;;;;21.86;32.32;102415.66;5081066;28;20082;-68
2023/04/05 10:59:04;;;;;;;2.78;1.50;;;;;;;21.83;32.29;102410.66;5032784;28;20201;-67
2023/04/05 11:01:30;;;;;;;2.42;1.70;;;;;;;21.87;32.09;102409.38;5069886;28;20047;-67
2023/04/05 11:03:55;;;;;;;4.32;1.70;;;;;;;21.87;32.24;102414.66;5039376;28;20047;-67
2023/04/05 11:06:21;;;;;;;5.88;1.95;;;;;;;21.86;31.79;102415.66;5079561;28;20056;-68
2023/04/05 11:08:49;;;;;;;1.70;1.05;;;;;;;22.18;31.30;102413.25;5017400;28;20048;-67
2023/04/05 11:11:16;;;;;;;2.40;1.90;;;;;;;22.62;31.08;102397.19;5070882;28;20107;-68
2023/04/05 11:13:52;;;;;;;3.35;1.70;;;;;;;22.99;30.23;102393.38;5074345;28;20125;-66
2023/04/05 11:16:18;;;;;;;2.83;1.70;;;;;;;23.31;30.03;102396.06;5051895;28;20059;-67
2023/04/05 11:18:48;;;;;;;2.47;1.50;;;;;;;23.45;29.62;102395.41;5072837;28;20032;-67
2023/04/05 11:21:21;;;;;;;2.60;1.45;;;;;;;23.43;29.54;102389.41;5049436;28;20040;-67
2023/04/05 11:24:02;;;;;;;3.13;1.67;;;;;;;23.38;29.77;102389.09;5064800;28;20036;-67
2023/04/05 11:26:54;;;;;;;2.28;1.13;;;;;;;23.25;29.65;102383.44;5058100;28;21591;-67
2023/04/05 11:29:48;;;;;;;1.63;1.50;;;;;;;23.13;30.07;102376.75;5069864;28;20071;-67
2023/04/05 11:32:14;;;;;;;2.13;1.35;;;;;;;23.03;30.17;102374.28;5048676;28;20055;-66